Divide, Colorado
Current Conditions -  °F | °C
As of 7:58 PM on Saturday 25 Oct 2014 (Local Time) from KAFF Reporting Station
Clear Clear  
Wind Chill: 59°   Ceiling: Unl
Heat Index: 59°   Visibility: 10mi
Dew Point: 23°   Wind: 3mph
Humidity: 25%   Direction: 50°NE
Pressure: 30.13"   Gusts: NA
Location:  38.94°N, 105.16°W
Report Text: KAFF 260158Z AUTO 05003KT 10SM CLR 15/M05 A3013 RMK AO2 SLP152 T01521049
Loading
Personal Weather Stations






























Interactive Weather Map
Tropical Storm Tracking
New forecast layout! Learn more

10-Day Weather Forecast

Advertisements
Track Severe Weather on mobile